Terminal Aerodrome Forecast
Issued by NWS

Home | Current Version | Previous Version | Text Only | Print | Product List | Glossary On
Versions: 1 2 3 4 5 6 7 8 9 10 11 12 13 14 15 16 17 18
000
FTUS42 KMHX 271731 AAA
TAFOAJ
TAF AMD
KOAJ 271731Z 2718/2818 21011KT P6SM FEW060
     FM280200 19008KT P6SM BKN200
     FM280700 19008KT P6SM SCT010 BKN025
     FM281100 20007KT P6SM SCT020
     FM281300 21008KT P6SM SCT050
      AMD LTD TO CLD VIS AND WIND=

USA.gov is the U.S. government's official web portal to all federal, state and local government web resources and services.